Wommelgem, Belgium
Current Conditions -  °F | °C
As of 3:20 PM on Tuesday 21 Oct 2014 (Local Time) from EBAW Reporting Station
Light Rain Light Rain  
Wind Chill: 55°   Ceiling: Unl
Heat Index: 55°   Visibility: 6mi
Dew Point: 50°   Wind: 14mph
Humidity: 82%   Direction: 270°W
Pressure: 29.56"   Gusts: NA
Location:  51.2°N, 4.52°E
Report Text: EBAW 211320Z 27012KT 9999 -RA FEW020 SCT035 13/10 Q1001 TEMPO 4500 SHRA
Loading
Personal Weather Stations






























Interactive Weather Map
Tropical Storm Tracking
New forecast layout! Learn more

10-Day Weather Forecast

Advertisements
Track Severe Weather on mobile